This is the latest recevied weather packets stored in our database for station/object IZ1CYF-13. If no packets are shown the sender has not sent any weather packets the latest 10 day(s).
| Time | Temp. | Humidity | Pressure | Rain* | Wind** | Luminosity | Snow |
|---|---|---|---|---|---|---|---|
| 1778194745 | 17.22° C | 57% | 1016.2 hPa | - | - | - | - |
| 1778186921 | 18.33° C | 57% | 1015.3 hPa | - | - | - | - |
| 1778183326 | 18.33° C | 58% | 1014.7 hPa | - | - | - | - |
| 1778177922 | 18.89° C | 52% | 1013.6 hPa | - | - | - | - |
| 1778175526 | 20° C | 51% | 1013.2 hPa | - | - | - | - |
| 1778174338 | 20.56° C | 47% | 1012.7 hPa | - | - | - | - |
| 1778173723 | 20.56° C | 49% | 1013 hPa | - | - | - | - |
| 1778165325 | 19.44° C | 46% | 1013.2 hPa | - | - | - | - |
| 1778164723 | 20.56° C | 44% | 1012.9 hPa | - | - | - | - |
| 1778163522 | 21.11° C | 42% | 1012.8 hPa | - | - | - | - |
| 1778158122 | 19.44° C | 47% | 1013.8 hPa | - | - | - | - |
| 1778156922 | 17.78° C | 48% | 1014.4 hPa | - | - | - | - |
| 1778156322 | 18.89° C | 47% | 1014.2 hPa | - | - | - | - |
| 1778155122 | 19.44° C | 45% | 1014.1 hPa | - | - | - | - |
| 1778153323 | 21.11° C | 44% | 1014 hPa | - | - | - | - |
| 1778149123 | 18.89° C | 49% | 1015.2 hPa | - | - | - | - |
| 1778147923 | 17.78° C | 53% | 1015.4 hPa | - | - | - | - |
| 1778146723 | 19.44° C | 49% | 1014.9 hPa | - | - | - | - |
| 1778146123 | 17.78° C | 53% | 1015.2 hPa | - | - | - | - |
| 1778142524 | 19.44° C | 49% | 1014.4 hPa | - | - | - | - |
| 1778141353 | 19.44° C | 48% | 1014.5 hPa | - | - | - | - |
| 1778138924 | 18.89° C | 47% | 1014.5 hPa | - | - | - | - |
| 1778133527 | 19.44° C | 46% | 1013.9 hPa | - | - | - | - |
| 1778099924 | 17.22° C | 61% | 1011.6 hPa | - | - | - | - |
| 1778098731 | 20° C | 53% | 1010.7 hPa | - | - | - | - |
* Rain since midnight (hover to see other rain measurements)
** Current wind speed in m/s (hover to see current wind gust speed)